ADDS METAR Data INFO
IDs: Format: Raw Decoded Include TAF

Data at: 1958 UTC 15 Dec 2017

KTQH 151955Z AUTO 26008KT 10SM SCT040 10/M01 A3019 RMK AO2
KTQH 151935Z AUTO 26007KT 10SM BKN038 10/M01 A3020 RMK AO2
KTQH 151915Z AUTO 30004KT 10SM CLR 08/M01 A3020 RMK AO2
KTQH 151855Z AUTO 30009KT 10SM SCT034 08/M01 A3021 RMK AO2
KTQH 151835Z AUTO 28009KT 270V330 10SM SCT032 08/00 A3021 RMK AO2
KTQH 151815Z AUTO 28010KT 10SM BKN030 10/00 A3022 RMK AO2
KTQH 151755Z AUTO 30006KT 10SM SCT026 09/00 A3022 RMK AO2
KTQH 151735Z AUTO 00000KT 10SM SCT026 08/01 A3024 RMK AO2
KTQH 151715Z AUTO 33004KT 10SM SCT024 07/01 A3025 RMK AO2
KTQH 151655Z AUTO 30007KT 10SM SCT018 07/01 A3025 RMK AO2
KTQH 151635Z AUTO 32009KT 10SM SCT018 06/01 A3025 RMK AO2
KTQH 151615Z AUTO 35008KT 10SM CLR 05/01 A3025 RMK AO2
KTQH 151555Z AUTO 33006KT 10SM CLR 05/01 A3025 RMK AO2
KTQH 151535Z AUTO 32007KT 10SM CLR 03/02 A3025 RMK AO2
KTQH 151515Z AUTO 30005KT 10SM CLR 02/01 A3025 RMK AO2
KTQH 151455Z AUTO 00000KT 10SM CLR 00/00 A3025 RMK AO2
KTQH 151435Z AUTO 00000KT 10SM CLR M02/M02 A3025 RMK AO2
KTQH 151415Z AUTO 00000KT 5SM BR CLR M03/M03 A3025 RMK AO2
KTQH 151355Z AUTO 00000KT 10SM CLR M05/M05 A3024 RMK AO2
KTQH 151335Z AUTO 00000KT 10SM SCT044 M05/M05 A3023 RMK AO2
KTQH 151315Z AUTO 00000KT 10SM SCT044 M05/M05 A3023 RMK AO2
KTQH 151255Z AUTO 00000KT 10SM SCT042 M05/M05 A3022 RMK AO2
KTQH 151235Z AUTO 00000KT 7SM SCT036 BKN042 M05/M05 A3022 RMK AO2
KTQH 151215Z AUTO 00000KT 10SM SCT034 M05/M06 A3021 RMK AO2
KTQH 151155Z AUTO 00000KT 10SM CLR M04/M05 A3020 RMK AO2
KTQH 151135Z AUTO 00000KT 10SM CLR M04/M05 A3019 RMK AO2
KTQH 151115Z AUTO 00000KT 10SM SCT060 M03/M05 A3019 RMK AO2
KTQH 151055Z AUTO 00000KT 10SM BKN060 M03/M03 A3019 RMK AO2
KTQH 151035Z AUTO 00000KT 10SM SCT050 M03/M03 A3019 RMK AO2
KTQH 151015Z AUTO 00000KT 10SM SCT050 M02/M03 A3019 RMK AO2
KTQH 150955Z AUTO 00000KT 10SM CLR M02/M03 A3019 RMK AO2
KTQH 150935Z AUTO 00000KT 10SM SCT055 SCT080 M01/M02 A3018 RMK AO2
KTQH 150915Z AUTO 00000KT 10SM SCT055 SCT080 M01/M02 A3018 RMK AO2
KTQH 150855Z AUTO 00000KT 10SM SCT070 SCT075 M01/M02 A3018 RMK AO2
KTQH 150835Z AUTO 00000KT 10SM BKN065 M01/M02 A3018 RMK AO2
KTQH 150815Z AUTO 00000KT 10SM SCT042 BKN055 BKN080 M02/M02 A3018 RMK AO2
KTQH 150755Z AUTO 00000KT 10SM SCT042 SCT055 BKN080 M02/M03 A3018 RMK AO2
KTQH 150735Z AUTO 00000KT 10SM BKN080 M03/M03 A3017 RMK AO2
KTQH 150715Z AUTO 00000KT 10SM BKN080 M03/M04 A3017 RMK AO2
KTQH 150655Z AUTO 00000KT 10SM SCT080 M03/M04 A3017 RMK AO2
KTQH 150635Z AUTO 00000KT 10SM SCT048 M03/M04 A3017 RMK AO2
KTQH 150615Z AUTO 00000KT 10SM BKN048 M03/M03 A3018 RMK AO2
KTQH 150555Z AUTO 00000KT 10SM CLR M03/M04 A3018 RMK AO2
KTQH 150535Z AUTO 00000KT 10SM CLR M02/M03 A3017 RMK AO2
KTQH 150515Z AUTO 00000KT 10SM CLR M02/M03 A3017 RMK AO2
KTQH 150455Z AUTO 00000KT 10SM SCT060 M01/M03 A3017 RMK AO2
KTQH 150435Z AUTO 00000KT 10SM OVC060 M01/M02 A3016 RMK AO2
KTQH 150415Z AUTO 00000KT 10SM OVC060 M02/M03 A3016 RMK AO2
KTQH 150355Z AUTO 00000KT 10SM BKN060 M03/M03 A3016 RMK AO2
KTQH 150335Z AUTO 00000KT 10SM SCT070 M04/M05 A3017 RMK AO2
KTQH 150315Z AUTO 00000KT 10SM CLR M04/M05 A3017 RMK AO2
KTQH 150255Z AUTO 00000KT 10SM CLR M03/M05 A3017 RMK AO2
KTQH 150235Z AUTO 00000KT 10SM CLR M03/M04 A3016 RMK AO2
KTQH 150215Z AUTO 00000KT 10SM CLR M03/M05 A3017 RMK AO2
KTQH 150155Z AUTO 00000KT 10SM CLR M03/M04 A3017 RMK AO2
KTQH 150135Z AUTO 00000KT 10SM CLR M03/M04 A3016 RMK AO2
KTQH 150115Z AUTO 00000KT 10SM CLR M02/M05 A3016 RMK AO2
KTQH 150055Z AUTO 00000KT 10SM CLR M02/M04 A3016 RMK AO2
KTQH 150035Z AUTO 00000KT 10SM CLR M01/M04 A3016 RMK AO2
KTQH 150015Z AUTO 00000KT 10SM CLR 00/M03 A3015 RMK AO2
KTQH 142355Z AUTO 00000KT 10SM CLR 01/M03 A3014 RMK AO2
KTQH 142335Z AUTO 00000KT 10SM CLR 02/M03 A3013 RMK AO2
KTQH 142315Z AUTO 00000KT 10SM CLR 03/M03 A3013 RMK AO2
KTQH 142255Z AUTO 00000KT 10SM CLR 05/M02 A3012 RMK AO2
KTQH 142235Z AUTO 33005KT 10SM SCT039 05/M02 A3012 RMK AO2
KTQH 142220Z AUTO 34006KT 10SM BKN039 05/M02 A3012 RMK AO2
KTQH 142155Z AUTO 34007KT 10SM OVC041 05/M02 A3011 RMK AO2
KTQH 142135Z AUTO 33008KT 10SM OVC041 06/M02 A3011 RMK AO2
KTQH 142115Z AUTO 35009KT 10SM OVC041 06/M02 A3011 RMK AO2
KTQH 142055Z AUTO 34012KT 10SM OVC041 06/M02 A3011 RMK AO2
KTQH 142035Z AUTO 34010KT 10SM OVC043 06/M02 A3010 RMK AO2
KTQH 142015Z AUTO 35009KT 10SM OVC043 07/M02 A3011 RMK AO2
KTQH 141955Z AUTO 33007KT 10SM OVC043 07/M02 A3011 RMK AO2
KTQH 141935Z AUTO 33006KT 10SM OVC041 07/M02 A3011 RMK AO2
KTQH 141915Z AUTO 01004KT 10SM BKN041 BKN047 08/M02 A3011 RMK AO2
KTQH 141855Z AUTO 33010KT 10SM BKN041 BKN047 08/M02 A3011 RMK AO2
KTQH 141835Z AUTO 35005KT 10SM BKN041 08/M02 A3012 RMK AO2
KTQH 141815Z AUTO 36006KT 10SM SCT041 08/M02 A3012 RMK AO2
KTQH 141755Z AUTO 36007KT 10SM SCT041 08/M01 A3012 RMK AO2
KTQH 141735Z AUTO 35006KT 10SM SCT037 08/M01 A3013 RMK AO2
KTQH 141715Z AUTO 36005KT 10SM SCT037 08/M01 A3013 RMK AO2
KTQH 141655Z AUTO 35006KT 10SM SCT035 08/M01 A3013 RMK AO2
KTQH 141635Z AUTO 35003KT 10SM SCT034 08/M01 A3014 RMK AO2
KTQH 141615Z AUTO 03006KT 10SM CLR 06/M01 A3013 RMK AO2
KTQH 141555Z AUTO 02003KT 10SM CLR 05/M01 A3012 RMK AO2
KTQH 141535Z AUTO 01004KT 10SM CLR 05/M01 A3011 RMK AO2
KTQH 141515Z AUTO 03004KT 10SM CLR 04/M01 A3010 RMK AO2
KTQH 141455Z AUTO 01007KT 10SM CLR 03/M01 A3009 RMK AO2
KTQH 141435Z AUTO 01007KT 10SM CLR 03/M01 A3008 RMK AO2
KTQH 141415Z AUTO 01008KT 10SM CLR 03/M02 A3008 RMK AO2
KTQH 141355Z AUTO 36005KT 10SM CLR 03/M02 A3008 RMK AO2
KTQH 141335Z AUTO 36004KT 10SM CLR 03/M02 A3007 RMK AO2
KTQH 141315Z AUTO 01005KT 10SM CLR 03/M02 A3005 RMK AO2
KTQH 141255Z AUTO 36007KT 10SM CLR 03/M02 A3004 RMK AO2
KTQH 141235Z AUTO 36007KT 10SM CLR 04/M02 A3003 RMK AO2
KTQH 141215Z AUTO 01009G15KT 10SM CLR 04/M01 A3002 RMK AO2
KTQH 141155Z AUTO 02010G15KT 10SM CLR 04/M01 A3000 RMK AO2
KTQH 141135Z AUTO 01005KT 10SM CLR 05/M01 A3001 RMK AO2
KTQH 141115Z AUTO 01005KT 10SM CLR 05/M01 A2999 RMK AO2
KTQH 141055Z AUTO 02005KT 10SM CLR 05/M01 A2999 RMK AO2
KTQH 141035Z AUTO 01006KT 10SM CLR 05/M01 A2999 RMK AO2
KTQH 141015Z AUTO 01005KT 10SM CLR 05/M01 A2999 RMK AO2
KTQH 140955Z AUTO 01004KT 10SM CLR 05/M01 A2998 RMK AO2
KTQH 140935Z AUTO 00000KT 10SM CLR 05/M01 A2997 RMK AO2
KTQH 140915Z AUTO 01004KT 10SM CLR 05/M01 A2997 RMK AO2
KTQH 140855Z AUTO 01003KT 10SM CLR 05/00 A2997 RMK AO2
KTQH 140835Z AUTO 36005KT 10SM CLR 04/00 A2996 RMK AO2
KTQH 140815Z AUTO 00000KT 10SM CLR 03/M01 A2996 RMK AO2